createdAt,value
2022-08-01T00:00:17.584Z,21.39
2022-08-01T00:01:48.975Z,21.61
2022-08-01T00:03:20.549Z,20.75
2022-08-01T00:04:54.305Z,21.46
2022-08-01T00:06:25.714Z,21.60
2022-08-01T00:07:57.049Z,21.37
2022-08-01T00:09:28.546Z,21.81
2022-08-01T00:11:02.758Z,20.64
2022-08-01T00:12:34.381Z,20.90
2022-08-01T00:14:05.678Z,20.71
2022-08-01T00:15:37.011Z,20.16
2022-08-01T00:17:08.347Z,19.95
2022-08-01T00:18:39.769Z,20.37
2022-08-01T00:20:11.191Z,19.55
2022-08-01T00:22:02.250Z,18.62
2022-08-01T00:23:33.724Z,19.18
2022-08-01T00:25:05.026Z,19.40
2022-08-01T00:26:36.367Z,19.04
2022-08-01T00:28:07.790Z,18.95
2022-08-01T00:30:10.064Z,18.97
2022-08-01T00:31:44.217Z,18.61
2022-08-01T00:33:15.620Z,18.49
2022-08-01T00:34:47.133Z,19.03
2022-08-01T00:36:19.126Z,17.83
2022-08-01T00:37:50.655Z,17.34
2022-08-01T00:39:22.349Z,17.84
2022-08-01T00:40:53.866Z,18.08
2022-08-01T00:42:25.412Z,17.52
2022-08-01T00:43:57.004Z,17.09
2022-08-01T00:45:28.406Z,17.11
2022-08-01T00:47:00.182Z,16.92
2022-08-01T00:48:31.568Z,18.60
2022-08-01T00:50:03.020Z,19.47
2022-08-01T00:51:34.590Z,19.59
2022-08-01T00:53:05.993Z,20.94
2022-08-01T00:54:37.517Z,22.07
2022-08-01T00:56:08.916Z,22.76
2022-08-01T00:58:03.885Z,23.33
2022-08-01T00:59:37.315Z,24.48
2022-08-01T01:01:09.295Z,25.72
2022-08-01T01:02:43.499Z,26.84
2022-08-01T01:04:15.395Z,27.46
2022-08-01T01:05:46.946Z,27.35
2022-08-01T01:07:18.312Z,27.34
2022-08-01T01:08:49.755Z,26.88
2022-08-01T01:10:21.163Z,27.03
2022-08-01T01:11:52.614Z,26.32
2022-08-01T01:13:24.264Z,28.23
2022-08-01T01:14:55.641Z,29.91
2022-08-01T01:16:26.959Z,31.17
2022-08-01T01:17:58.305Z,30.80
2022-08-01T01:19:30.385Z,32.16
2022-08-01T01:21:01.846Z,32.04
2022-08-01T01:22:33.242Z,32.81
2022-08-01T01:24:05.847Z,33.88
2022-08-01T01:25:37.234Z,33.36
2022-08-01T01:27:08.712Z,34.72
2022-08-01T01:28:40.212Z,34.96
2022-08-01T01:30:11.725Z,35.93
2022-08-01T01:31:43.065Z,36.50
2022-08-01T01:33:14.494Z,37.50
2022-08-01T01:34:46.258Z,37.37
2022-08-01T01:36:17.808Z,36.54
2022-08-01T01:37:49.228Z,37.53
2022-08-01T01:39:21.028Z,36.92
2022-08-01T01:40:52.545Z,37.78
2022-08-01T01:42:24.074Z,38.06
2022-08-01T01:43:55.868Z,38.08
2022-08-01T01:45:27.617Z,37.27
2022-08-01T01:46:58.979Z,37.77
2022-08-01T01:48:30.504Z,36.99
2022-08-01T01:50:01.998Z,38.11
2022-08-01T01:51:33.619Z,36.92
2022-08-01T01:53:05.036Z,35.13
2022-08-01T01:54:36.574Z,34.46
2022-08-01T01:56:07.936Z,34.83
2022-08-01T01:57:39.683Z,34.08
2022-08-01T01:59:11.144Z,34.50
2022-08-01T02:00:42.721Z,31.09
2022-08-01T02:02:17.725Z,31.47
2022-08-01T02:03:49.461Z,31.40
2022-08-01T02:05:20.977Z,30.71
2022-08-01T02:06:52.545Z,31.01
2022-08-01T02:08:24.252Z,31.24
2022-08-01T02:09:55.652Z,31.02
2022-08-01T02:11:27.065Z,31.15
2022-08-01T02:12:58.611Z,31.18
2022-08-01T02:14:30.366Z,31.80
2022-08-01T02:16:02.209Z,31.23
2022-08-01T02:17:33.695Z,30.78
2022-08-01T02:19:05.070Z,31.05
2022-08-01T02:20:36.605Z,31.21
2022-08-01T02:22:08.561Z,31.94
2022-08-01T02:23:40.021Z,32.62
2022-08-01T02:25:11.606Z,32.77
2022-08-01T02:26:44.093Z,32.70
2022-08-01T02:28:15.408Z,31.25
2022-08-01T02:29:46.811Z,31.53
2022-08-01T02:31:18.391Z,31.98
2022-08-01T02:32:49.786Z,31.56
2022-08-01T02:34:21.328Z,31.57
2022-08-01T02:36:30.625Z,31.67
2022-08-01T02:38:04.700Z,32.32
2022-08-01T02:39:36.050Z,32.92
2022-08-01T02:41:07.423Z,31.32
2022-08-01T02:42:39.174Z,30.87
2022-08-01T02:44:10.724Z,30.79
2022-08-01T02:45:42.149Z,31.77
2022-08-01T02:47:13.690Z,30.80
2022-08-01T02:48:45.170Z,30.73
2022-08-01T02:50:16.766Z,31.56
2022-08-01T02:51:48.336Z,31.88
2022-08-01T02:53:19.718Z,31.90
2022-08-01T02:54:51.048Z,31.20
2022-08-01T02:56:22.523Z,31.89
2022-08-01T02:57:56.836Z,31.80
2022-08-01T02:59:31.664Z,32.01
2022-08-01T03:01:03.976Z,31.39
2022-08-01T03:02:35.881Z,31.55
2022-08-01T03:04:07.358Z,32.04
2022-08-01T03:05:38.973Z,31.21
2022-08-01T03:07:10.591Z,31.31
2022-08-01T03:08:42.249Z,31.76
2022-08-01T03:10:13.834Z,31.57
2022-08-01T03:11:45.639Z,31.90
2022-08-01T03:13:17.148Z,31.07
2022-08-01T03:14:49.014Z,31.07
2022-08-01T03:16:22.154Z,31.02
2022-08-01T03:17:53.525Z,30.58
2022-08-01T03:19:25.111Z,31.64
2022-08-01T03:20:56.486Z,32.36
2022-08-01T03:22:27.896Z,31.35
2022-08-01T03:23:59.902Z,31.84
2022-08-01T03:25:31.355Z,31.56
2022-08-01T03:27:02.841Z,31.29
2022-08-01T03:28:34.829Z,30.06
2022-08-01T03:30:06.377Z,29.26
2022-08-01T03:31:37.779Z,29.44
2022-08-01T03:33:09.351Z,29.65
2022-08-01T03:34:46.775Z,28.64
2022-08-01T03:36:18.917Z,26.16
2022-08-01T03:38:14.932Z,24.09
2022-08-01T03:39:47.802Z,23.95
2022-08-01T03:41:19.372Z,22.73
2022-08-01T03:42:50.755Z,22.77
2022-08-01T03:44:22.436Z,22.92
2022-08-01T03:45:53.858Z,22.47
2022-08-01T03:47:25.245Z,22.04
2022-08-01T03:48:56.753Z,22.03
2022-08-01T03:50:28.291Z,22.34
2022-08-01T03:51:59.727Z,22.15
2022-08-01T03:53:31.275Z,21.08
2022-08-01T03:55:02.799Z,21.60
2022-08-01T03:56:34.704Z,21.93
2022-08-01T03:58:09.763Z,22.04
2022-08-01T03:59:41.817Z,22.36
2022-08-01T04:01:15.786Z,22.36
2022-08-01T04:02:47.571Z,23.15
2022-08-01T04:04:19.167Z,22.40
2022-08-01T04:05:50.767Z,22.76
2022-08-01T04:07:22.250Z,24.24
2022-08-01T04:08:53.649Z,24.61
2022-08-01T04:10:25.155Z,25.38
2022-08-01T04:11:56.510Z,24.76
2022-08-01T04:13:36.996Z,25.21
2022-08-01T04:15:08.687Z,24.58
2022-08-01T04:16:40.043Z,25.17
2022-08-01T04:18:11.704Z,25.30
2022-08-01T04:19:43.155Z,25.59
2022-08-01T04:21:14.758Z,25.06
2022-08-01T04:22:46.174Z,25.38
2022-08-01T04:24:17.684Z,25.27
2022-08-01T04:25:49.077Z,25.36
2022-08-01T04:27:50.510Z,25.58
2022-08-01T04:29:23.111Z,27.08
2022-08-01T04:31:02.040Z,27.23
2022-08-01T04:32:33.761Z,28.53
2022-08-01T04:34:05.080Z,27.25
2022-08-01T04:36:01.554Z,27.52
2022-08-01T04:37:35.888Z,27.43
2022-08-01T04:39:07.363Z,27.72
2022-08-01T04:40:38.938Z,28.03
2022-08-01T04:42:10.319Z,27.56
2022-08-01T04:43:44.167Z,27.63
2022-08-01T04:45:15.843Z,27.57
2022-08-01T04:46:47.173Z,28.15
2022-08-01T04:48:18.502Z,28.26
2022-08-01T04:49:50.411Z,28.32
2022-08-01T04:51:21.852Z,27.88
2022-08-01T04:52:53.328Z,28.30
2022-08-01T04:54:24.913Z,28.61
2022-08-01T04:55:56.405Z,27.27
2022-08-01T04:57:28.921Z,25.68
2022-08-01T04:59:00.343Z,23.00
2022-08-01T05:00:31.690Z,19.97
2022-08-01T05:02:03.532Z,20.78
2022-08-01T05:03:38.832Z,20.10
2022-08-01T05:05:10.547Z,20.75
2022-08-01T05:06:42.256Z,19.62
2022-08-01T05:09:54.840Z,17.64
2022-08-01T05:11:26.157Z,18.41
2022-08-01T05:13:02.565Z,17.41
2022-08-01T05:14:33.947Z,16.56
2022-08-01T05:16:05.338Z,16.67
2022-08-01T05:17:36.739Z,16.68
2022-08-01T05:19:08.063Z,16.47
2022-08-01T05:20:44.490Z,16.63
2022-08-01T05:22:16.924Z,16.27
2022-08-01T05:23:48.416Z,16.56
2022-08-01T05:25:56.055Z,16.51
2022-08-01T05:27:29.662Z,16.81
2022-08-01T05:29:02.818Z,16.78
2022-08-01T05:30:34.331Z,16.00
2022-08-01T05:32:05.925Z,15.86
2022-08-01T05:33:37.399Z,16.32
2022-08-01T05:35:08.771Z,16.28
2022-08-01T05:36:40.113Z,16.41
2022-08-01T05:38:11.612Z,16.86
2022-08-01T05:39:51.471Z,16.26
2022-08-01T05:41:23.027Z,16.38
2022-08-01T05:42:54.517Z,16.05
2022-08-01T05:44:32.369Z,16.59
2022-08-01T05:46:05.062Z,16.95
2022-08-01T05:47:36.460Z,16.00
2022-08-01T05:49:14.548Z,16.54
2022-08-01T05:50:46.240Z,16.53
2022-08-01T05:52:17.719Z,16.74
2022-08-01T05:53:49.257Z,16.37
2022-08-01T05:55:20.847Z,16.76
2022-08-01T05:56:52.254Z,16.49
2022-08-01T05:58:28.679Z,16.18
2022-08-01T06:00:00.084Z,15.19
2022-08-01T06:01:36.711Z,16.20
2022-08-01T06:03:09.550Z,15.06
2022-08-01T06:04:41.165Z,13.71
2022-08-01T06:06:17.656Z,14.55
2022-08-01T06:07:53.982Z,15.23
2022-08-01T06:09:25.341Z,14.31
2022-08-01T06:10:56.898Z,13.83
2022-08-01T06:12:30.291Z,14.49
2022-08-01T06:14:05.342Z,14.07
2022-08-01T06:15:36.815Z,14.65
2022-08-01T06:17:08.584Z,14.92
2022-08-01T06:18:45.168Z,14.87
2022-08-01T06:20:16.586Z,14.64
2022-08-01T06:21:47.972Z,13.83
2022-08-01T06:23:31.738Z,13.67
2022-08-01T06:25:04.302Z,14.15
2022-08-01T06:26:35.784Z,13.79
2022-08-01T06:28:17.521Z,14.19
2022-08-01T06:29:55.389Z,13.78
2022-08-01T06:31:31.771Z,12.44
2022-08-01T06:33:10.064Z,12.97
2022-08-01T06:34:41.443Z,13.12
2022-08-01T06:36:17.872Z,13.27
2022-08-01T06:37:49.183Z,13.24
2022-08-01T06:39:20.692Z,13.13
2022-08-01T06:40:53.102Z,12.67
2022-08-01T06:42:29.539Z,12.66
2022-08-01T06:44:00.992Z,12.34
2022-08-01T06:45:32.402Z,12.02
2022-08-01T06:47:03.876Z,12.32
2022-08-01T06:48:35.499Z,12.33
2022-08-01T06:50:06.857Z,12.08
2022-08-01T06:51:41.520Z,11.84
2022-08-01T06:53:13.002Z,13.09
2022-08-01T06:54:44.366Z,13.69
2022-08-01T06:56:15.989Z,13.53
2022-08-01T06:57:47.407Z,13.87
2022-08-01T06:59:18.920Z,14.05
2022-08-01T07:00:53.604Z,13.51
2022-08-01T07:02:30.180Z,13.37
2022-08-01T07:04:01.586Z,13.92
2022-08-01T07:05:33.049Z,13.69
2022-08-01T07:07:04.551Z,14.02
2022-08-01T07:08:36.519Z,13.56
2022-08-01T07:10:10.906Z,12.98
2022-08-01T07:11:42.259Z,11.84
2022-08-01T07:13:13.745Z,11.85
2022-08-01T07:14:45.341Z,11.67
2022-08-01T07:16:16.730Z,12.15
2022-08-01T07:17:48.557Z,12.26
2022-08-01T07:19:25.339Z,12.04
2022-08-01T07:20:56.799Z,13.30
2022-08-01T07:22:28.261Z,13.65
2022-08-01T07:24:00.190Z,13.66
2022-08-01T07:25:31.706Z,14.07
2022-08-01T07:27:23.210Z,13.46
2022-08-01T07:28:55.953Z,13.41
2022-08-01T07:30:27.369Z,13.87
2022-08-01T07:31:58.815Z,14.05
2022-08-01T07:33:48.399Z,13.60
2022-08-01T07:35:25.658Z,14.08
2022-08-01T07:36:57.342Z,13.70
2022-08-01T07:38:28.823Z,12.46
2022-08-01T07:40:00.353Z,12.14
2022-08-01T07:41:45.649Z,12.18
2022-08-01T07:43:36.945Z,12.02
2022-08-01T07:45:08.349Z,11.92
2022-08-01T07:46:40.168Z,11.57
2022-08-01T07:48:11.815Z,11.42
2022-08-01T07:49:45.564Z,10.54
2022-08-01T07:51:17.120Z,11.33
2022-08-01T07:52:49.013Z,12.11
2022-08-01T07:54:20.468Z,12.16
2022-08-01T07:56:04.625Z,11.57
2022-08-01T07:57:36.055Z,11.25
2022-08-01T07:59:07.804Z,10.77
2022-08-01T08:00:39.479Z,10.97
2022-08-01T08:02:11.363Z,10.43
2022-08-01T08:03:43.124Z,9.84
2022-08-01T08:05:14.691Z,8.78
2022-08-01T08:06:46.350Z,8.85
2022-08-01T08:08:17.789Z,8.51
2022-08-01T08:09:51.142Z,8.23
2022-08-01T08:11:22.923Z,8.33
2022-08-01T08:12:54.484Z,8.41
2022-08-01T08:14:32.823Z,6.88
2022-08-01T08:16:04.976Z,6.12
2022-08-01T08:17:36.441Z,5.84
2022-08-01T08:19:07.927Z,5.81
2022-08-01T08:20:39.322Z,4.82
2022-08-01T08:22:11.204Z,4.53
2022-08-01T08:23:43.977Z,4.47
2022-08-01T08:25:15.646Z,4.64
2022-08-01T08:26:48.217Z,4.42
2022-08-01T08:28:27.918Z,4.39
2022-08-01T08:29:59.701Z,4.48
2022-08-01T08:31:52.621Z,4.44
2022-08-01T08:33:24.511Z,4.38
2022-08-01T08:34:55.899Z,4.54
2022-08-01T08:36:31.145Z,4.54
2022-08-01T08:38:03.095Z,4.54
2022-08-01T08:39:41.757Z,5.20
2022-08-01T08:41:17.935Z,4.19
2022-08-01T08:42:52.337Z,4.26
2022-08-01T08:44:23.786Z,4.19
2022-08-01T08:45:58.790Z,4.02
2022-08-01T08:47:31.773Z,4.46
2022-08-01T08:49:03.216Z,4.24
2022-08-01T08:50:36.422Z,4.41
2022-08-01T08:52:08.829Z,4.47
2022-08-01T08:53:41.061Z,4.34
2022-08-01T08:55:12.519Z,4.39
2022-08-01T08:56:43.990Z,3.68
2022-08-01T08:58:17.723Z,3.42
2022-08-01T08:59:49.231Z,3.34
2022-08-01T09:01:23.006Z,3.07
2022-08-01T09:02:54.662Z,3.11
2022-08-01T09:04:26.760Z,3.18
2022-08-01T09:05:58.340Z,3.13
2022-08-01T09:07:29.887Z,2.77
2022-08-01T09:09:02.333Z,2.80
2022-08-01T09:10:34.037Z,4.64
2022-08-01T09:12:06.789Z,3.10
2022-08-01T09:13:38.464Z,2.08
2022-08-01T09:15:16.855Z,1.66
2022-08-01T09:16:49.029Z,1.80
2022-08-01T09:18:21.928Z,1.65
2022-08-01T09:19:54.542Z,1.76
2022-08-01T09:21:26.199Z,1.80
2022-08-01T09:23:00.249Z,1.95
2022-08-01T09:24:31.709Z,1.75
2022-08-01T09:26:03.241Z,1.85
2022-08-01T09:27:34.935Z,2.18
2022-08-01T09:29:10.492Z,2.14
2022-08-01T09:30:42.035Z,2.34
2022-08-01T09:32:16.342Z,2.44
2022-08-01T09:33:50.584Z,2.77
2022-08-01T09:35:23.715Z,3.09
2022-08-01T09:36:55.328Z,3.06
2022-08-01T09:38:27.279Z,2.81
2022-08-01T09:39:59.103Z,2.99
2022-08-01T09:41:37.955Z,2.98
2022-08-01T09:43:12.056Z,3.10
2022-08-01T09:44:55.032Z,3.04
2022-08-01T09:46:28.630Z,3.05
2022-08-01T09:48:00.290Z,3.11
2022-08-01T09:49:50.420Z,2.30
2022-08-01T09:51:59.882Z,1.67
2022-08-01T09:53:32.445Z,1.45
2022-08-01T09:55:09.611Z,1.53
2022-08-01T09:56:41.100Z,1.54
2022-08-01T09:58:20.318Z,1.58
2022-08-01T09:59:59.101Z,1.58
2022-08-01T10:01:40.488Z,2.03
2022-08-01T10:03:18.404Z,2.70
2022-08-01T10:04:50.719Z,2.82
2022-08-01T10:06:24.985Z,1.51
2022-08-01T10:07:57.895Z,1.53
2022-08-01T10:09:35.964Z,1.45
2022-08-01T10:11:12.528Z,1.42
2022-08-01T10:12:45.310Z,1.39
2022-08-01T10:14:18.554Z,1.46
2022-08-01T10:15:50.466Z,1.36
2022-08-01T10:17:22.615Z,1.55
2022-08-01T10:18:54.310Z,1.42
2022-08-01T10:20:29.798Z,1.31
2022-08-01T10:22:02.217Z,1.35
2022-08-01T10:23:39.802Z,1.32
2022-08-01T10:25:12.618Z,1.27
2022-08-01T10:26:45.222Z,1.35
2022-08-01T10:28:18.167Z,1.18
2022-08-01T10:30:06.026Z,1.21
2022-08-01T10:31:41.425Z,1.08
2022-08-01T10:33:52.575Z,0.95
2022-08-01T10:35:47.349Z,0.95
2022-08-01T10:37:19.667Z,0.99
2022-08-01T10:38:51.317Z,1.03
2022-08-01T10:40:30.429Z,0.93
2022-08-01T10:42:02.715Z,0.95
2022-08-01T10:43:36.406Z,0.84
2022-08-01T10:45:08.948Z,0.85
2022-08-01T10:46:40.546Z,0.89
2022-08-01T10:48:20.812Z,0.84
2022-08-01T10:49:52.962Z,0.93
2022-08-01T10:51:51.476Z,0.87
2022-08-01T10:53:42.789Z,0.98
2022-08-01T10:55:14.727Z,0.79
2022-08-01T10:56:46.340Z,0.77
2022-08-01T10:58:20.517Z,0.75
2022-08-01T10:59:59.359Z,0.89
2022-08-01T11:01:33.371Z,0.86
2022-08-01T11:03:04.958Z,0.92
2022-08-01T11:04:36.433Z,0.92
2022-08-01T11:06:08.387Z,0.85
2022-08-01T11:07:40.249Z,0.88
2022-08-01T11:09:11.673Z,0.96
2022-08-01T11:10:48.069Z,0.97
2022-08-01T11:12:24.448Z,0.92
2022-08-01T11:13:56.397Z,1.01
2022-08-01T11:15:30.866Z,1.00
2022-08-01T11:17:02.846Z,0.96
2022-08-01T11:18:37.579Z,0.91
2022-08-01T11:20:09.915Z,0.89
2022-08-01T11:21:57.823Z,1.21
2022-08-01T11:23:36.609Z,1.05
2022-08-01T11:25:13.674Z,1.04
2022-08-01T11:26:46.446Z,1.04
2022-08-01T11:28:29.089Z,1.29
2022-08-01T11:30:04.749Z,1.00
2022-08-01T11:31:39.493Z,1.07
2022-08-01T11:33:16.015Z,0.97
2022-08-01T11:34:47.600Z,0.89
2022-08-01T11:36:31.964Z,0.86
2022-08-01T11:38:14.399Z,0.87
2022-08-01T11:39:46.231Z,0.83
2022-08-01T11:41:20.721Z,0.83
2022-08-01T11:43:13.693Z,0.83
2022-08-01T11:44:45.416Z,0.77
2022-08-01T11:46:18.057Z,0.48
2022-08-01T11:47:49.950Z,0.40
2022-08-01T11:49:21.869Z,0.40
2022-08-01T11:50:54.472Z,0.60
2022-08-01T11:52:26.266Z,0.46
2022-08-01T11:53:58.303Z,0.52
2022-08-01T11:55:31.632Z,0.48
2022-08-01T11:57:04.023Z,0.49
2022-08-01T11:58:35.755Z,0.49
2022-08-01T12:00:15.458Z,0.64
2022-08-01T12:01:49.271Z,0.68
2022-08-01T12:03:33.056Z,1.05
2022-08-01T12:05:05.475Z,1.64
2022-08-01T12:06:41.562Z,0.76
2022-08-01T12:08:13.014Z,0.47
2022-08-01T12:09:44.850Z,0.48
2022-08-01T12:11:16.444Z,0.50
2022-08-01T12:12:47.886Z,0.51
2022-08-01T12:14:19.453Z,0.58
2022-08-01T12:15:56.201Z,0.44
2022-08-01T12:17:28.220Z,0.52
2022-08-01T12:18:59.707Z,0.53
2022-08-01T12:20:32.001Z,0.55
2022-08-01T12:22:04.327Z,0.51
2022-08-01T12:23:36.037Z,0.58
2022-08-01T12:25:07.451Z,0.51
2022-08-01T12:26:38.896Z,0.50
2022-08-01T12:28:10.439Z,0.45
2022-08-01T12:29:42.197Z,0.51
2022-08-01T12:31:13.571Z,0.45
2022-08-01T12:32:45.062Z,0.46
2022-08-01T12:34:16.618Z,0.31
2022-08-01T12:35:49.369Z,0.41
2022-08-01T12:37:20.921Z,0.45
2022-08-01T12:38:52.375Z,0.49
2022-08-01T12:40:24.098Z,0.45
2022-08-01T12:41:55.904Z,0.47
2022-08-01T12:43:29.238Z,0.50
2022-08-01T12:45:01.139Z,0.50
2022-08-01T12:46:32.862Z,0.53
2022-08-01T12:48:09.675Z,0.50
2022-08-01T12:49:41.290Z,0.53
2022-08-01T12:51:13.539Z,0.43
2022-08-01T12:52:45.307Z,0.45
2022-08-01T12:54:17.008Z,0.46
2022-08-01T12:55:58.551Z,0.52
2022-08-01T12:57:31.618Z,0.47
2022-08-01T12:59:03.471Z,0.48
2022-08-01T13:00:35.004Z,0.44
2022-08-01T13:02:08.212Z,0.43
2022-08-01T13:03:40.461Z,0.51
2022-08-01T13:05:11.843Z,0.50
2022-08-01T13:06:43.298Z,0.41
2022-08-01T13:08:14.961Z,0.47
2022-08-01T13:09:46.506Z,0.48
2022-08-01T13:11:18.558Z,0.57
2022-08-01T13:12:50.317Z,0.51
2022-08-01T13:14:26.297Z,0.45
2022-08-01T13:15:59.643Z,0.58
2022-08-01T13:17:31.375Z,0.97
2022-08-01T13:19:03.078Z,1.16
2022-08-01T13:20:34.499Z,0.91
2022-08-01T13:22:06.433Z,0.88
2022-08-01T13:24:01.374Z,0.84
2022-08-01T13:25:33.715Z,0.71
2022-08-01T13:27:05.483Z,0.56
2022-08-01T13:28:37.077Z,0.54
2022-08-01T13:30:09.085Z,0.61
2022-08-01T13:31:40.959Z,0.63
2022-08-01T13:33:12.516Z,0.50
2022-08-01T13:34:43.946Z,0.44
2022-08-01T13:36:15.456Z,0.57
2022-08-01T13:37:47.152Z,0.52
2022-08-01T13:39:18.573Z,0.55
2022-08-01T13:40:55.330Z,0.68
2022-08-01T13:42:26.937Z,0.52
2022-08-01T13:43:59.520Z,0.59
2022-08-01T13:45:31.554Z,0.63
2022-08-01T13:47:11.614Z,0.62
2022-08-01T13:48:47.973Z,0.62
2022-08-01T13:50:26.857Z,0.80
2022-08-01T13:51:58.511Z,0.64
2022-08-01T13:53:29.952Z,0.72
2022-08-01T13:55:01.890Z,0.70
2022-08-01T13:56:33.496Z,0.91
2022-08-01T13:58:05.010Z,0.76
2022-08-01T13:59:36.661Z,0.68
2022-08-01T14:01:08.326Z,0.70
2022-08-01T14:02:40.036Z,0.71
2022-08-01T14:04:12.643Z,0.75
2022-08-01T14:05:44.251Z,0.78
2022-08-01T14:07:15.871Z,0.77
2022-08-01T14:08:47.621Z,0.79
2022-08-01T14:10:20.426Z,0.80
2022-08-01T14:11:52.538Z,0.77
2022-08-01T14:13:24.193Z,0.86
2022-08-01T14:14:57.006Z,0.82
2022-08-01T14:16:28.687Z,0.69
2022-08-01T14:18:00.354Z,0.68
2022-08-01T14:19:38.231Z,0.68
2022-08-01T14:21:10.722Z,0.64
2022-08-01T14:22:42.239Z,0.72
2022-08-01T14:24:13.968Z,0.67
2022-08-01T14:26:01.592Z,0.63
2022-08-01T14:27:37.590Z,0.94
2022-08-01T14:29:09.020Z,1.07
2022-08-01T14:30:40.694Z,1.11
2022-08-01T14:32:12.274Z,1.24
2022-08-01T14:33:43.925Z,0.98
2022-08-01T14:35:15.721Z,1.25
2022-08-01T14:36:47.311Z,1.31
2022-08-01T14:38:29.203Z,0.99
2022-08-01T14:40:03.514Z,0.96
2022-08-01T14:41:35.069Z,1.00
2022-08-01T14:43:06.540Z,0.92
2022-08-01T14:44:56.890Z,0.97
2022-08-01T14:46:28.505Z,1.03
2022-08-01T14:48:03.449Z,1.03
2022-08-01T14:49:38.137Z,1.02
2022-08-01T14:51:17.523Z,0.91
2022-08-01T14:52:49.028Z,1.99
2022-08-01T14:54:29.098Z,3.75
2022-08-01T14:56:01.130Z,1.97
2022-08-01T14:57:32.915Z,1.30
2022-08-01T14:59:04.540Z,1.09
2022-08-01T15:00:57.996Z,0.92
2022-08-01T15:02:30.290Z,0.90
2022-08-01T15:04:01.908Z,1.02
2022-08-01T15:05:36.042Z,1.02
2022-08-01T15:07:07.568Z,0.96
2022-08-01T15:08:39.161Z,1.19
2022-08-01T15:10:10.857Z,0.99
2022-08-01T15:11:43.438Z,1.36
2022-08-01T15:13:20.149Z,1.09
2022-08-01T15:14:51.614Z,0.98
2022-08-01T15:16:23.220Z,0.92
2022-08-01T15:17:54.717Z,0.97
2022-08-01T15:19:26.396Z,1.06
2022-08-01T15:20:58.138Z,0.90
2022-08-01T15:22:29.940Z,0.88
2022-08-01T15:24:01.417Z,0.88
2022-08-01T15:25:41.127Z,1.07
2022-08-01T15:27:14.044Z,0.90
2022-08-01T15:28:45.501Z,0.99
2022-08-01T15:30:17.061Z,1.00
2022-08-01T15:31:57.418Z,1.02
2022-08-01T15:33:29.324Z,0.93
2022-08-01T15:35:06.012Z,0.94
2022-08-01T15:36:37.536Z,1.09
2022-08-01T15:38:13.836Z,1.00
2022-08-01T15:39:45.836Z,1.05
2022-08-01T15:41:17.397Z,1.17
2022-08-01T15:42:49.070Z,1.25
2022-08-01T15:44:21.054Z,1.11
2022-08-01T15:45:52.591Z,1.07
2022-08-01T15:47:25.031Z,1.06
2022-08-01T15:48:56.786Z,1.12
2022-08-01T15:50:28.592Z,1.24
2022-08-01T15:52:00.104Z,0.88
2022-08-01T15:53:31.606Z,1.03
2022-08-01T15:55:03.225Z,1.01
2022-08-01T15:56:34.831Z,1.07
2022-08-01T15:58:06.623Z,1.10
2022-08-01T15:59:41.765Z,1.26
2022-08-01T16:01:13.563Z,1.23
2022-08-01T16:02:45.157Z,1.09
2022-08-01T16:04:16.662Z,1.28
2022-08-01T16:05:48.285Z,1.46
2022-08-01T16:07:19.737Z,1.15
2022-08-01T16:08:51.481Z,1.15
2022-08-01T16:10:22.966Z,1.32
2022-08-01T16:11:54.871Z,1.15
2022-08-01T16:13:26.531Z,1.12
2022-08-01T16:14:58.211Z,1.21
2022-08-01T16:16:29.704Z,1.30
2022-08-01T16:18:02.154Z,1.35
2022-08-01T16:19:34.173Z,1.31
2022-08-01T16:21:05.630Z,1.43
2022-08-01T16:22:37.312Z,1.29
2022-08-01T16:24:08.753Z,1.41
2022-08-01T16:25:40.345Z,1.46
2022-08-01T16:27:11.878Z,1.49
2022-08-01T16:28:43.492Z,1.27
2022-08-01T16:30:15.088Z,1.52
2022-08-01T16:31:59.478Z,1.53
2022-08-01T16:34:02.613Z,1.27
2022-08-01T16:35:36.830Z,1.30
2022-08-01T16:37:08.318Z,1.47
2022-08-01T16:38:39.889Z,1.30
2022-08-01T16:40:11.576Z,1.42
2022-08-01T16:41:43.294Z,1.62
2022-08-01T16:43:14.933Z,1.55
2022-08-01T16:44:46.608Z,1.66
2022-08-01T16:46:21.568Z,2.73
2022-08-01T16:47:53.620Z,2.06
2022-08-01T16:49:25.597Z,1.58
2022-08-01T16:50:57.235Z,1.62
2022-08-01T16:52:28.954Z,1.87
2022-08-01T16:54:00.871Z,2.18
2022-08-01T16:55:50.383Z,2.10
2022-08-01T16:57:22.600Z,2.60
2022-08-01T16:58:54.329Z,3.29
2022-08-01T17:00:28.056Z,3.84
2022-08-01T17:02:02.251Z,2.75
2022-08-01T17:03:51.568Z,9.44
2022-08-01T17:05:24.294Z,5.37
2022-08-01T17:06:55.774Z,4.57
2022-08-01T17:08:27.648Z,3.49
2022-08-01T17:09:59.129Z,3.13
2022-08-01T17:11:30.656Z,2.27
2022-08-01T17:13:02.456Z,2.15
2022-08-01T17:14:34.115Z,1.86
2022-08-01T17:16:05.639Z,2.06
2022-08-01T17:17:37.614Z,1.74
2022-08-01T17:19:09.137Z,1.59
2022-08-01T17:20:40.817Z,2.54
2022-08-01T17:22:20.245Z,2.45
2022-08-01T17:23:51.837Z,1.55
2022-08-01T17:25:23.571Z,1.32
2022-08-01T17:26:58.098Z,1.40
2022-08-01T17:28:29.670Z,1.26
2022-08-01T17:30:01.200Z,1.37
2022-08-01T17:31:32.739Z,3.88
2022-08-01T17:33:05.469Z,4.88
2022-08-01T17:34:37.082Z,1.73
2022-08-01T17:36:08.700Z,1.66
2022-08-01T17:37:40.224Z,1.49
2022-08-01T17:39:11.718Z,1.46
2022-08-01T17:40:43.373Z,1.51
2022-08-01T17:42:14.888Z,1.85
2022-08-01T17:43:46.593Z,1.28
2022-08-01T17:45:27.651Z,1.43
2022-08-01T17:47:00.069Z,1.30
2022-08-01T17:48:31.538Z,1.75
2022-08-01T17:50:03.214Z,1.46
2022-08-01T17:51:34.827Z,1.49
2022-08-01T17:53:06.531Z,1.48
2022-08-01T17:54:38.012Z,1.89
2022-08-01T17:56:09.849Z,1.58
2022-08-01T17:57:41.578Z,1.48
2022-08-01T17:59:12.949Z,1.57
2022-08-01T18:00:44.693Z,1.76
2022-08-01T18:02:16.230Z,1.90
2022-08-01T18:03:47.763Z,2.18
2022-08-01T18:05:19.570Z,2.00
2022-08-01T18:06:58.239Z,2.58
2022-08-01T18:08:30.887Z,4.46
2022-08-01T18:10:02.740Z,4.31
2022-08-01T18:11:39.369Z,6.00
2022-08-01T18:13:10.855Z,3.94
2022-08-01T18:14:43.782Z,2.58
2022-08-01T18:16:15.778Z,2.08
2022-08-01T18:17:47.239Z,1.90
2022-08-01T18:19:18.913Z,1.75
2022-08-01T18:20:50.770Z,1.82
2022-08-01T18:22:32.925Z,1.79
2022-08-01T18:24:05.377Z,1.74
2022-08-01T18:25:37.330Z,1.70
2022-08-01T18:27:09.187Z,1.93
2022-08-01T18:28:42.093Z,2.04
2022-08-01T18:30:18.570Z,2.36
2022-08-01T18:31:50.083Z,2.31
2022-08-01T18:33:21.765Z,2.48
2022-08-01T18:34:53.255Z,2.55
2022-08-01T18:36:31.557Z,2.60
2022-08-01T18:38:05.017Z,2.42
2022-08-01T18:39:37.301Z,2.81
2022-08-01T18:41:10.578Z,2.78
2022-08-01T18:42:42.224Z,2.30
2022-08-01T18:44:13.654Z,1.68
2022-08-01T18:45:45.646Z,1.54
2022-08-01T18:47:17.745Z,1.66
2022-08-01T18:48:49.236Z,1.88
2022-08-01T18:50:20.681Z,2.00
2022-08-01T18:51:52.268Z,1.93
2022-08-01T18:53:24.078Z,2.55
2022-08-01T18:54:55.662Z,2.00
2022-08-01T18:56:27.108Z,1.88
2022-08-01T18:57:58.887Z,1.74
2022-08-01T18:59:31.661Z,1.76
2022-08-01T19:01:03.198Z,1.44
2022-08-01T19:02:35.003Z,1.95
2022-08-01T19:04:06.692Z,2.03
2022-08-01T19:05:38.264Z,1.69
2022-08-01T19:07:09.911Z,1.51
2022-08-01T19:08:41.455Z,1.64
2022-08-01T19:10:13.253Z,1.80
2022-08-01T19:11:44.649Z,2.14
2022-08-01T19:13:16.547Z,1.85
2022-08-01T19:14:48.112Z,1.82
2022-08-01T19:16:19.640Z,1.66
2022-08-01T19:17:51.106Z,1.52
2022-08-01T19:19:27.440Z,1.67
2022-08-01T19:20:59.670Z,1.67
2022-08-01T19:22:31.145Z,1.77
2022-08-01T19:24:02.552Z,1.72
2022-08-01T19:25:34.331Z,1.77
2022-08-01T19:27:27.240Z,1.76
2022-08-01T19:28:58.832Z,1.84
2022-08-01T19:30:30.254Z,1.78
2022-08-01T19:32:01.627Z,1.96
2022-08-01T19:33:34.460Z,1.93
2022-08-01T19:35:06.276Z,1.88
2022-08-01T19:36:37.937Z,1.68
2022-08-01T19:38:09.662Z,1.77
2022-08-01T19:39:41.245Z,1.75
2022-08-01T19:41:12.639Z,1.76
2022-08-01T19:42:44.138Z,1.89
2022-08-01T19:44:20.916Z,1.80
2022-08-01T19:45:52.437Z,2.01
2022-08-01T19:47:23.781Z,1.77
2022-08-01T19:48:55.513Z,1.80
2022-08-01T19:50:27.079Z,1.86
2022-08-01T19:51:58.469Z,1.76
2022-08-01T19:53:30.021Z,1.88
2022-08-01T19:55:01.641Z,1.78
2022-08-01T19:56:33.088Z,1.80
2022-08-01T19:58:25.988Z,2.06
2022-08-01T19:59:58.850Z,1.88
2022-08-01T20:01:30.256Z,1.87
2022-08-01T20:03:02.509Z,2.17
2022-08-01T20:04:34.239Z,1.89
2022-08-01T20:06:05.570Z,2.07
2022-08-01T20:07:37.038Z,2.02
2022-08-01T20:09:08.543Z,1.97
2022-08-01T20:10:39.902Z,2.13
2022-08-01T20:12:11.448Z,2.17
2022-08-01T20:13:42.977Z,2.39
2022-08-01T20:15:14.416Z,5.13
2022-08-01T20:16:45.959Z,3.91
2022-08-01T20:18:17.404Z,2.36
2022-08-01T20:19:48.850Z,1.92
2022-08-01T20:21:20.702Z,2.07
2022-08-01T20:22:52.258Z,2.16
2022-08-01T20:24:24.096Z,2.10
2022-08-01T20:25:58.655Z,2.10
2022-08-01T20:27:30.303Z,2.07
2022-08-01T20:29:01.854Z,2.09
2022-08-01T20:30:33.396Z,2.37